createdAt,value
2022-08-17T00:00:43.353Z,19.98
2022-08-17T00:01:31.470Z,19.97
2022-08-17T00:02:30.935Z,19.97
2022-08-17T00:03:31.248Z,19.98
2022-08-17T00:04:30.580Z,20.03
2022-08-17T00:05:30.868Z,20.05
2022-08-17T00:06:31.207Z,20.05
2022-08-17T00:07:31.511Z,20.06
2022-08-17T00:08:31.789Z,20.10
2022-08-17T00:09:32.118Z,20.08
2022-08-17T00:10:32.514Z,20.09
2022-08-17T00:11:32.683Z,20.08
2022-08-17T00:12:43.284Z,20.09
2022-08-17T00:13:34.279Z,20.08
2022-08-17T00:14:33.500Z,20.06
2022-08-17T00:15:33.808Z,20.06
2022-08-17T00:16:55.758Z,20.08
2022-08-17T00:17:35.433Z,20.08
2022-08-17T00:19:02.080Z,20.06
2022-08-17T00:19:35.984Z,20.06
2022-08-17T00:20:39.065Z,20.06
2022-08-17T00:21:56.077Z,20.03
2022-08-17T00:22:37.020Z,20.03
2022-08-17T00:23:36.148Z,20.03
2022-08-17T00:24:36.478Z,19.97
2022-08-17T00:25:36.769Z,19.88
2022-08-17T00:26:44.517Z,19.86
2022-08-17T00:27:38.369Z,19.86
2022-08-17T00:28:37.610Z,19.88
2022-08-17T00:29:37.927Z,19.87
2022-08-17T00:30:48.467Z,19.87
2022-08-17T00:31:39.508Z,19.79
2022-08-17T00:33:10.814Z,19.76
2022-08-17T00:33:40.028Z,19.70
2022-08-17T00:34:39.294Z,19.72
2022-08-17T00:35:39.600Z,19.76
2022-08-17T00:36:39.897Z,19.79
2022-08-17T00:37:40.230Z,19.86
2022-08-17T00:38:40.528Z,19.90
2022-08-17T00:39:42.665Z,19.93
2022-08-17T00:40:44.792Z,19.94
2022-08-17T00:41:42.494Z,19.94
2022-08-17T00:42:41.678Z,19.93
2022-08-17T00:43:41.970Z,19.87
2022-08-17T00:44:42.280Z,19.83
2022-08-17T00:45:42.573Z,19.80
2022-08-17T00:46:42.854Z,19.79
2022-08-17T00:47:43.175Z,19.79
2022-08-17T00:48:43.484Z,19.84
2022-08-17T00:49:44.251Z,19.88
2022-08-17T00:50:44.102Z,19.90
2022-08-17T00:51:44.399Z,19.90
2022-08-17T00:52:44.701Z,19.88
2022-08-17T02:57:04.305Z,19.31
2022-08-17T02:58:04.619Z,19.29
2022-08-17T02:59:04.902Z,19.28
2022-08-17T03:00:05.211Z,19.24
2022-08-17T03:01:05.510Z,19.28
2022-08-17T03:02:05.889Z,19.31
2022-08-17T03:03:06.091Z,19.31
2022-08-17T03:04:06.449Z,19.31
2022-08-17T03:05:06.740Z,19.32
2022-08-17T03:06:07.058Z,19.32
2022-08-17T03:07:07.357Z,19.31
2022-08-17T03:08:07.635Z,19.25
2022-08-17T03:09:08.906Z,19.25
2022-08-17T03:10:08.252Z,19.29
2022-08-17T03:11:08.545Z,19.24
2022-08-17T03:12:08.849Z,19.23
2022-08-17T03:13:09.148Z,19.23
2022-08-17T03:14:09.442Z,19.18
2022-08-17T03:15:09.762Z,19.15
2022-08-17T03:16:10.089Z,19.14
2022-08-17T03:17:10.723Z,19.15
2022-08-17T03:18:14.392Z,19.17
2022-08-17T03:19:12.032Z,19.18
2022-08-17T03:20:11.378Z,19.21
2022-08-17T03:21:11.679Z,19.25
2022-08-17T03:22:36.882Z,19.25
2022-08-17T03:23:13.293Z,19.28
2022-08-17T03:24:12.535Z,19.25
2022-08-17T03:25:12.856Z,19.29
2022-08-17T03:26:15.359Z,19.32
2022-08-17T03:27:13.468Z,19.33
2022-08-17T03:28:13.772Z,19.33
2022-08-17T03:29:14.106Z,19.35
2022-08-17T03:30:14.410Z,19.35
2022-08-17T03:31:14.641Z,19.36
2022-08-17T03:32:14.910Z,19.36
2022-08-17T03:33:15.180Z,19.38
2022-08-17T03:34:15.518Z,19.39
2022-08-17T03:35:15.831Z,19.40
2022-08-17T03:36:16.080Z,19.40
2022-08-17T03:37:16.356Z,19.40
2022-08-17T03:38:16.647Z,19.40
2022-08-17T03:39:16.945Z,19.39
2022-08-17T03:40:17.260Z,19.38
2022-08-17T03:41:18.546Z,19.39
2022-08-17T03:42:32.028Z,19.38
2022-08-17T03:43:19.067Z,19.36
2022-08-17T03:44:18.328Z,19.35
2022-08-17T03:45:18.626Z,19.31
2022-08-17T03:46:28.691Z,19.24
2022-08-17T03:47:20.201Z,19.18
2022-08-17T03:48:19.472Z,19.17
2022-08-17T03:49:19.780Z,19.13
2022-08-17T03:50:20.081Z,19.14
2022-08-17T03:51:20.393Z,19.11
2022-08-17T03:52:20.691Z,19.10
2022-08-17T03:53:21.020Z,19.05
2022-08-17T03:54:21.310Z,19.01
2022-08-17T03:55:21.607Z,19.01
2022-08-17T03:56:22.908Z,19.02
2022-08-17T03:57:22.199Z,18.99
2022-08-17T03:58:22.382Z,18.95
2022-08-17T03:59:22.717Z,18.92
2022-08-17T04:00:23.039Z,18.91
2022-08-17T04:01:23.401Z,18.91
2022-08-17T04:02:23.691Z,18.91
2022-08-17T04:03:23.980Z,18.92
2022-08-17T04:04:27.527Z,18.94
2022-08-17T04:05:24.512Z,18.94
2022-08-17T04:06:24.791Z,18.95
2022-08-17T04:07:25.120Z,18.99
2022-08-17T04:08:25.444Z,19.01
2022-08-17T04:09:25.751Z,19.06
2022-08-17T04:10:26.554Z,19.06
2022-08-17T04:11:26.303Z,19.06
2022-08-17T04:12:26.614Z,19.08
2022-08-17T04:13:26.910Z,19.08
2022-08-17T04:14:27.229Z,19.06
2022-08-17T04:15:27.532Z,19.08
2022-08-17T04:16:27.852Z,19.10
2022-08-17T04:17:28.191Z,19.10
2022-08-17T04:18:28.533Z,19.06
2022-08-17T04:19:28.818Z,19.06
2022-08-17T04:20:29.137Z,19.08
2022-08-17T04:21:29.440Z,19.10
2022-08-17T04:22:33.843Z,19.08
2022-08-17T04:23:30.118Z,19.11
2022-08-17T04:24:30.291Z,19.13
2022-08-17T04:25:30.631Z,19.13
2022-08-17T04:26:50.595Z,19.11
2022-08-17T04:27:32.132Z,19.13
2022-08-17T04:28:31.400Z,19.14
2022-08-17T04:29:55.338Z,19.14
2022-08-17T04:30:32.872Z,19.15
2022-08-17T04:31:32.103Z,19.14
2022-08-17T04:33:05.270Z,19.15
2022-08-17T04:33:33.714Z,19.15
2022-08-17T04:34:32.948Z,19.18
2022-08-17T04:35:33.222Z,19.24
2022-08-17T04:36:33.530Z,19.25
2022-08-17T04:37:33.834Z,19.32
2022-08-17T04:38:34.164Z,19.35
2022-08-17T04:39:34.516Z,19.38
2022-08-17T04:40:34.798Z,19.38
2022-08-17T04:41:35.144Z,19.36
2022-08-17T04:42:35.347Z,18.98
2022-08-17T04:43:35.643Z,18.74
2022-08-17T04:44:37.362Z,18.64
2022-08-17T04:45:36.272Z,18.61
2022-08-17T04:46:36.606Z,18.61
2022-08-17T04:47:36.905Z,18.64
2022-08-17T04:48:37.945Z,18.67
2022-08-17T04:49:37.431Z,18.72
2022-08-17T04:50:37.720Z,18.74
2022-08-17T04:51:38.046Z,18.79
2022-08-17T04:52:43.491Z,18.82
2022-08-17T04:53:39.678Z,18.83
2022-08-17T04:54:38.929Z,18.83
2022-08-17T04:55:39.222Z,18.77
2022-08-17T04:56:39.501Z,18.68
2022-08-17T04:57:44.514Z,18.59
2022-08-17T04:58:41.116Z,18.54
2022-08-17T04:59:40.362Z,18.46
2022-08-17T05:00:40.666Z,18.43
2022-08-17T05:01:41.017Z,18.40
2022-08-17T05:02:50.010Z,18.42
2022-08-17T05:03:42.502Z,18.44
2022-08-17T05:04:41.758Z,18.43
2022-08-17T05:05:42.052Z,18.40
2022-08-17T05:06:42.366Z,18.42
2022-08-17T05:07:42.655Z,18.44
2022-08-17T05:08:42.959Z,18.49
2022-08-17T05:09:43.295Z,18.57
2022-08-17T05:10:45.499Z,18.64
2022-08-17T05:11:44.999Z,18.68
2022-08-17T05:12:44.137Z,18.74
2022-08-17T05:13:44.420Z,18.80
2022-08-17T05:14:44.719Z,18.83
2022-08-17T05:15:45.320Z,18.90
2022-08-17T05:16:45.313Z,18.92
2022-08-17T05:17:45.610Z,18.98
2022-08-17T05:18:45.908Z,19.08
2022-08-17T05:19:51.383Z,19.11
2022-08-17T05:20:47.508Z,19.14
2022-08-17T05:21:46.795Z,19.14
2022-08-17T05:22:47.119Z,19.18
2022-08-17T05:23:53.955Z,19.21
2022-08-17T05:24:53.417Z,19.24
2022-08-17T05:25:48.972Z,19.29
2022-08-17T05:26:48.186Z,19.32
2022-08-17T05:27:48.484Z,19.36
2022-08-17T05:28:48.738Z,19.38
2022-08-17T05:29:48.978Z,19.40
2022-08-17T05:30:49.487Z,19.40
2022-08-17T05:31:49.644Z,19.42
2022-08-17T05:32:50.103Z,19.43
2022-08-17T05:33:50.252Z,19.47
2022-08-17T05:34:50.539Z,19.51
2022-08-17T05:35:50.844Z,19.57
2022-08-17T05:36:51.151Z,19.61
2022-08-17T05:37:51.486Z,19.65
2022-08-17T05:38:51.820Z,19.70
2022-08-17T05:39:52.192Z,19.73
2022-08-17T05:40:52.397Z,19.79
2022-08-17T05:41:52.676Z,19.79
2022-08-17T05:42:53.163Z,19.79
2022-08-17T05:43:56.442Z,19.83
2022-08-17T05:44:53.562Z,19.84
2022-08-17T05:45:55.115Z,19.87
2022-08-17T05:46:54.143Z,19.91
2022-08-17T05:47:54.435Z,19.97
2022-08-17T05:48:54.730Z,20.00
2022-08-17T05:49:55.063Z,20.03
2022-08-17T05:50:55.358Z,20.09
2022-08-17T05:51:55.629Z,20.16
2022-08-17T05:52:55.934Z,20.23
2022-08-17T05:53:56.232Z,20.27
2022-08-17T05:54:56.546Z,20.34
2022-08-17T05:55:56.829Z,20.41
2022-08-17T05:56:57.149Z,20.47
2022-08-17T05:57:57.446Z,20.54
2022-08-17T05:58:57.772Z,20.62
2022-08-17T05:59:58.109Z,20.68
2022-08-17T06:00:58.491Z,20.74
2022-08-17T06:01:58.701Z,20.86
2022-08-17T06:02:59.007Z,20.90
2022-08-17T06:03:59.323Z,20.98
2022-08-17T06:04:59.653Z,20.99
2022-08-17T06:05:59.951Z,21.04
2022-08-17T06:07:01.021Z,21.05
2022-08-17T06:08:00.507Z,21.04
2022-08-17T06:09:00.812Z,21.04
2022-08-17T06:10:01.153Z,21.04
2022-08-17T06:11:01.449Z,21.02
2022-08-17T06:12:01.712Z,21.06
2022-08-17T06:13:02.000Z,21.13
2022-08-17T06:14:02.334Z,21.13
2022-08-17T06:15:02.653Z,21.13
2022-08-17T06:16:02.989Z,21.14
2022-08-17T06:17:03.304Z,21.14
2022-08-17T06:18:03.609Z,21.17
2022-08-17T06:19:03.938Z,21.17
2022-08-17T06:20:04.242Z,21.17
2022-08-17T06:21:04.545Z,21.19
2022-08-17T06:22:04.859Z,21.20
2022-08-17T06:23:05.195Z,21.20
2022-08-17T06:24:05.481Z,21.21
2022-08-17T06:25:10.442Z,21.29
2022-08-17T06:26:07.074Z,21.36
2022-08-17T06:27:06.338Z,21.42
2022-08-17T06:28:06.671Z,21.48
2022-08-17T06:29:08.219Z,21.48
2022-08-17T06:30:08.250Z,21.46
2022-08-17T06:31:07.485Z,21.46
2022-08-17T06:32:07.799Z,21.46
2022-08-17T06:33:08.124Z,21.48
2022-08-17T06:34:08.442Z,21.45
2022-08-17T06:35:08.760Z,21.48
2022-08-17T06:36:09.484Z,21.50
2022-08-17T06:37:09.387Z,21.53
2022-08-17T06:38:09.693Z,21.54
2022-08-17T06:39:11.014Z,21.57
2022-08-17T06:40:10.343Z,21.53
2022-08-17T06:41:10.582Z,21.51
2022-08-17T06:43:04.981Z,21.51
2022-08-17T06:43:12.586Z,21.50
2022-08-17T06:44:11.377Z,21.46
2022-08-17T06:45:11.678Z,21.48
2022-08-17T06:46:11.999Z,21.46
2022-08-17T06:47:12.302Z,21.45
2022-08-17T06:48:12.629Z,21.44
2022-08-17T06:49:12.916Z,21.41
2022-08-17T06:50:13.241Z,21.41
2022-08-17T06:51:13.588Z,21.39
2022-08-17T06:52:13.801Z,21.38
2022-08-17T06:53:15.098Z,21.38
2022-08-17T06:54:14.333Z,21.36
2022-08-17T06:55:18.716Z,21.35
2022-08-17T06:56:14.905Z,21.36
2022-08-17T06:57:15.253Z,21.41
2022-08-17T06:58:16.303Z,21.41
2022-08-17T06:59:15.750Z,21.44
2022-08-17T07:00:16.058Z,21.48
2022-08-17T07:01:16.503Z,21.46
2022-08-17T07:02:16.650Z,21.48
2022-08-17T07:03:16.975Z,21.50
2022-08-17T07:04:17.268Z,21.56
2022-08-17T07:05:17.560Z,21.61
2022-08-17T07:06:17.854Z,21.71
2022-08-17T07:07:18.150Z,21.76
2022-08-17T07:08:18.465Z,21.82
2022-08-17T07:09:18.761Z,21.90
2022-08-17T07:10:19.102Z,21.97
2022-08-17T07:11:19.421Z,21.99
2022-08-17T07:12:19.731Z,22.01
2022-08-17T07:13:20.027Z,21.98
2022-08-17T07:14:20.329Z,22.01
2022-08-17T07:15:20.668Z,22.02
2022-08-17T07:16:20.979Z,22.04
2022-08-17T07:17:21.290Z,22.06
2022-08-17T07:18:22.582Z,22.06
2022-08-17T07:19:21.832Z,22.07
2022-08-17T07:20:22.125Z,22.07
2022-08-17T07:21:26.173Z,22.09
2022-08-17T07:22:22.697Z,22.14
2022-08-17T07:23:23.005Z,22.22
2022-08-17T07:24:29.503Z,22.29
2022-08-17T07:25:24.605Z,22.34
2022-08-17T07:26:23.962Z,22.35
2022-08-17T07:27:24.331Z,22.43
2022-08-17T07:28:24.623Z,22.49
2022-08-17T07:29:24.923Z,22.53
2022-08-17T07:30:25.216Z,22.53
2022-08-17T07:31:25.512Z,22.53
2022-08-17T07:32:25.853Z,22.59
2022-08-17T07:33:26.147Z,22.64
2022-08-17T07:34:26.459Z,22.68
2022-08-17T07:35:37.651Z,22.72
2022-08-17T07:36:30.257Z,22.74
2022-08-17T07:37:27.407Z,22.71
2022-08-17T07:38:27.715Z,22.67
2022-08-17T07:39:28.178Z,22.65
2022-08-17T07:40:28.383Z,22.71
2022-08-17T07:41:53.105Z,22.74
2022-08-17T07:42:29.887Z,22.78
2022-08-17T07:43:29.432Z,22.82
2022-08-17T07:44:29.407Z,22.86
2022-08-17T07:45:29.750Z,22.89
2022-08-17T07:46:30.103Z,22.90
2022-08-17T07:47:30.302Z,22.92
2022-08-17T07:48:30.595Z,22.97
2022-08-17T07:49:30.899Z,22.99
2022-08-17T07:50:31.268Z,23.04
2022-08-17T07:51:31.572Z,23.09
2022-08-17T07:52:50.692Z,23.20
2022-08-17T07:53:33.172Z,23.24
2022-08-17T07:54:32.440Z,23.31
2022-08-17T07:55:32.752Z,23.35
2022-08-17T07:56:34.445Z,23.40
2022-08-17T07:57:33.287Z,23.40
2022-08-17T07:58:33.631Z,23.45
2022-08-17T07:59:34.091Z,23.52
2022-08-17T08:00:34.211Z,23.57
2022-08-17T08:01:41.745Z,23.61
2022-08-17T08:02:35.697Z,23.62
2022-08-17T08:03:34.953Z,23.60
2022-08-17T08:05:00.594Z,23.58
2022-08-17T08:05:49.679Z,23.53
2022-08-17T08:06:36.901Z,23.55
2022-08-17T08:07:36.184Z,23.55
2022-08-17T08:08:36.496Z,23.58
2022-08-17T08:09:36.804Z,23.62
2022-08-17T08:10:37.103Z,23.64
2022-08-17T08:11:41.229Z,23.68
2022-08-17T08:12:38.733Z,23.75
2022-08-17T08:13:37.989Z,23.80
2022-08-17T08:14:40.053Z,23.87
2022-08-17T08:15:38.573Z,23.90
2022-08-17T08:16:39.887Z,23.95
2022-08-17T08:17:39.178Z,23.95
2022-08-17T08:18:55.905Z,23.98
2022-08-17T08:19:40.624Z,24.04
2022-08-17T08:20:53.120Z,24.08
2022-08-17T08:21:41.194Z,24.14
2022-08-17T08:22:40.438Z,24.17
2022-08-17T08:23:40.774Z,24.24
2022-08-17T08:24:41.093Z,24.34
2022-08-17T08:25:41.411Z,24.42
2022-08-17T08:26:41.648Z,24.52
2022-08-17T08:27:41.951Z,24.57
2022-08-17T08:28:42.255Z,24.59
2022-08-17T08:29:42.575Z,24.69
2022-08-17T08:30:42.918Z,24.77
2022-08-17T08:31:43.213Z,24.80
2022-08-17T08:32:43.541Z,24.87
2022-08-17T08:33:43.834Z,24.77
2022-08-17T08:34:58.843Z,24.76
2022-08-17T08:35:45.453Z,24.76
2022-08-17T08:37:12.478Z,24.80
2022-08-17T08:37:46.065Z,24.69
2022-08-17T08:38:45.212Z,24.71
2022-08-17T08:39:45.563Z,24.79
2022-08-17T08:40:45.828Z,24.91
2022-08-17T08:41:46.137Z,25.02
2022-08-17T08:42:46.471Z,25.16
2022-08-17T08:43:52.224Z,25.25
2022-08-17T08:45:00.688Z,25.22
2022-08-17T08:45:48.394Z,25.17
2022-08-17T08:46:47.630Z,25.19
2022-08-17T08:47:48.086Z,25.19
2022-08-17T08:48:55.999Z,25.22
2022-08-17T08:50:05.711Z,25.28
2022-08-17T08:50:49.872Z,25.31
2022-08-17T08:51:49.224Z,25.31
2022-08-17T08:52:49.487Z,25.30
2022-08-17T08:53:49.789Z,25.25
2022-08-17T08:54:50.111Z,25.30
2022-08-17T08:55:50.420Z,25.31
2022-08-17T08:57:19.763Z,25.27
2022-08-17T08:57:52.285Z,25.10
2022-08-17T08:58:51.310Z,25.12
2022-08-17T08:59:58.174Z,25.07
2022-08-17T09:00:52.903Z,25.06
2022-08-17T09:01:52.202Z,25.01
2022-08-17T09:02:52.440Z,24.97
2022-08-17T09:03:53.727Z,24.80
2022-08-17T09:05:13.417Z,24.73
2022-08-17T09:05:54.360Z,24.64
2022-08-17T09:06:53.592Z,24.61
2022-08-17T09:07:54.722Z,24.68
2022-08-17T09:08:54.144Z,24.77
2022-08-17T09:09:58.701Z,24.92
2022-08-17T09:10:55.745Z,25.10
2022-08-17T09:12:02.412Z,25.17
2022-08-17T09:12:56.305Z,24.95
2022-08-17T09:13:55.650Z,24.83
2022-08-17T09:14:55.822Z,24.71
2022-08-17T09:15:56.897Z,24.75
2022-08-17T09:16:58.265Z,24.82
2022-08-17T09:18:28.421Z,24.83
2022-08-17T09:19:03.367Z,24.94
2022-08-17T09:19:58.308Z,25.06
2022-08-17T09:20:57.549Z,25.15
2022-08-17T09:21:57.867Z,25.15
2022-08-17T09:22:58.140Z,25.30
2022-08-17T09:23:58.490Z,25.34
2022-08-17T09:24:58.717Z,25.35
2022-08-17T09:25:58.900Z,25.39
2022-08-17T09:26:59.201Z,25.56
2022-08-17T09:28:00.535Z,25.71
2022-08-17T09:28:59.756Z,25.69
2022-08-17T09:30:00.102Z,25.64
2022-08-17T09:31:00.283Z,25.64
2022-08-17T09:32:00.561Z,25.74
2022-08-17T09:33:00.846Z,25.75
2022-08-17T09:34:01.197Z,25.75
2022-08-17T09:35:01.502Z,25.80
2022-08-17T09:36:01.810Z,25.72
2022-08-17T09:37:02.110Z,25.65
2022-08-17T09:38:02.390Z,25.65
2022-08-17T09:39:02.709Z,25.64
2022-08-17T09:40:03.175Z,25.64
2022-08-17T09:41:03.287Z,25.65
2022-08-17T09:42:03.576Z,25.64
2022-08-17T09:43:03.851Z,25.61
2022-08-17T09:44:04.189Z,25.72
2022-08-17T09:45:04.495Z,25.82
2022-08-17T09:46:04.814Z,25.99
2022-08-17T09:47:05.119Z,26.20
2022-08-17T09:48:05.660Z,26.25
2022-08-17T09:49:05.771Z,26.28
2022-08-17T09:50:06.072Z,26.46
2022-08-17T09:51:06.798Z,26.46
2022-08-17T09:52:06.663Z,26.36
2022-08-17T09:53:06.961Z,26.42
2022-08-17T09:54:37.004Z,26.43
2022-08-17T09:55:08.582Z,26.47
2022-08-17T09:56:07.932Z,26.49
2022-08-17T09:57:28.453Z,26.61
2022-08-17T09:58:10.400Z,26.73
2022-08-17T09:59:08.812Z,26.84
2022-08-17T10:00:09.142Z,26.98
2022-08-17T10:01:09.506Z,27.04
2022-08-17T10:02:09.703Z,26.99
2022-08-17T10:03:09.992Z,27.13
2022-08-17T10:04:10.300Z,27.32
2022-08-17T10:05:10.589Z,27.16
2022-08-17T10:06:10.871Z,27.02
2022-08-17T10:07:11.162Z,27.05
2022-08-17T10:08:11.497Z,27.11
2022-08-17T10:09:11.677Z,27.23
2022-08-17T10:10:14.241Z,27.20
2022-08-17T10:11:12.315Z,27.04
2022-08-17T10:12:12.607Z,26.95
2022-08-17T10:13:12.849Z,27.04
2022-08-17T10:14:35.981Z,27.04
2022-08-17T10:15:14.652Z,27.13
2022-08-17T10:16:13.719Z,27.11
2022-08-17T10:17:14.032Z,27.23
2022-08-17T10:18:14.340Z,27.29
2022-08-17T10:19:14.678Z,27.29
2022-08-17T10:20:14.908Z,27.05
2022-08-17T10:21:15.159Z,26.92
2022-08-17T10:22:34.628Z,27.13
2022-08-17T10:23:16.739Z,27.14
2022-08-17T10:24:15.963Z,27.05
2022-08-17T10:25:23.719Z,26.86
2022-08-17T10:26:17.578Z,26.79
2022-08-17T10:27:16.805Z,26.59
2022-08-17T10:28:20.008Z,26.65
2022-08-17T10:29:17.395Z,26.69
2022-08-17T10:30:17.711Z,26.73
2022-08-17T10:31:34.131Z,26.96
2022-08-17T10:32:19.330Z,27.16
2022-08-17T10:33:18.595Z,27.53
2022-08-17T10:34:18.878Z,27.84
2022-08-17T10:35:19.224Z,27.95
2022-08-17T10:36:19.528Z,27.85
2022-08-17T10:37:19.838Z,27.86
2022-08-17T10:38:22.769Z,28.07
2022-08-17T10:39:20.412Z,28.22
2022-08-17T10:40:20.786Z,28.28
2022-08-17T10:41:20.994Z,28.36
2022-08-17T10:42:32.212Z,28.44
2022-08-17T10:43:22.593Z,28.47
2022-08-17T10:44:37.066Z,28.59
2022-08-17T10:45:23.248Z,28.59
2022-08-17T10:46:30.602Z,28.23
2022-08-17T10:47:23.767Z,27.91
2022-08-17T10:48:23.011Z,27.89
2022-08-17T10:49:23.306Z,28.25
2022-08-17T10:50:23.605Z,28.65
2022-08-17T10:51:23.924Z,28.77
2022-08-17T10:52:25.015Z,29.00
2022-08-17T10:53:24.460Z,29.15
2022-08-17T10:54:24.771Z,29.00
2022-08-17T10:55:25.068Z,29.06
2022-08-17T10:56:25.356Z,28.97
2022-08-17T10:57:25.730Z,29.04
2022-08-17T10:58:27.134Z,29.11
2022-08-17T10:59:26.222Z,29.16
2022-08-17T11:00:27.707Z,28.66
2022-08-17T11:01:26.886Z,28.47
2022-08-17T11:02:27.108Z,28.53
2022-08-17T11:03:27.400Z,28.84
2022-08-17T11:04:27.674Z,28.63
2022-08-17T11:05:27.965Z,28.63
2022-08-17T11:06:29.013Z,28.70
2022-08-17T11:07:28.539Z,28.78
2022-08-17T11:08:28.870Z,29.08
2022-08-17T11:09:29.056Z,29.04
2022-08-17T11:10:29.349Z,28.96
2022-08-17T11:11:29.628Z,29.13
2022-08-17T11:12:29.927Z,28.91
2022-08-17T11:13:30.244Z,28.65
2022-08-17T11:14:30.544Z,28.53
2022-08-17T11:15:30.977Z,28.65
2022-08-17T11:16:31.160Z,28.47
2022-08-17T11:17:31.499Z,28.87
2022-08-17T11:18:31.706Z,29.26
2022-08-17T11:19:32.004Z,29.52
2022-08-17T11:20:32.325Z,29.78
2022-08-17T11:21:32.637Z,29.55
2022-08-17T11:22:33.756Z,28.91
2022-08-17T11:23:33.181Z,28.70
2022-08-17T11:24:33.479Z,28.65
2022-08-17T11:25:33.817Z,28.41
2022-08-17T11:26:34.141Z,28.21
2022-08-17T11:27:34.435Z,28.17
2022-08-17T11:28:34.728Z,28.29
2022-08-17T11:29:35.031Z,28.73
2022-08-17T11:30:35.320Z,29.10
2022-08-17T11:31:39.321Z,29.04
2022-08-17T11:32:35.783Z,28.63
2022-08-17T11:33:36.933Z,28.48
2022-08-17T11:34:36.281Z,28.35
2022-08-17T11:35:36.610Z,28.53
2022-08-17T11:36:36.900Z,28.77
2022-08-17T11:37:37.205Z,28.90
2022-08-17T11:38:37.513Z,29.16
2022-08-17T11:39:37.881Z,29.06
2022-08-17T11:40:38.128Z,29.00
2022-08-17T11:41:38.451Z,28.70
2022-08-17T11:42:38.695Z,28.48
2022-08-17T11:43:42.735Z,28.47
2022-08-17T11:44:39.325Z,28.77
2022-08-17T11:45:43.416Z,28.58
2022-08-17T11:46:39.925Z,28.41
2022-08-17T11:47:40.143Z,28.44
2022-08-17T11:48:40.417Z,28.35
2022-08-17T11:49:40.740Z,28.51
2022-08-17T11:50:41.038Z,28.78
2022-08-17T11:51:41.363Z,28.93
2022-08-17T11:52:41.656Z,29.03
2022-08-17T11:53:41.944Z,28.95
2022-08-17T11:54:42.243Z,29.18
2022-08-17T11:55:44.946Z,29.50
2022-08-17T11:56:42.778Z,29.23
2022-08-17T11:57:43.053Z,29.04
2022-08-17T11:58:43.257Z,28.93
2022-08-17T11:59:44.347Z,28.78
2022-08-17T12:00:43.813Z,28.01
2022-08-17T12:01:44.100Z,27.74
2022-08-17T12:02:47.804Z,27.59
2022-08-17T12:03:55.325Z,27.64
2022-08-17T12:04:46.073Z,27.70
2022-08-17T12:05:45.252Z,27.80
2022-08-17T12:06:45.544Z,27.94
2022-08-17T12:07:45.930Z,28.38
2022-08-17T12:08:46.136Z,28.68
2022-08-17T12:09:46.434Z,28.75
2022-08-17T12:10:46.733Z,28.87
2022-08-17T12:12:11.140Z,28.96
2022-08-17T12:12:48.347Z,29.31
2022-08-17T12:13:47.572Z,29.37
2022-08-17T12:15:49.152Z,30.24
2022-08-17T12:16:48.498Z,30.57
2022-08-17T12:17:48.839Z,30.81
2022-08-17T12:18:49.130Z,30.89
2022-08-17T12:19:49.399Z,30.90
2022-08-17T12:20:54.578Z,30.81
2022-08-17T12:21:50.978Z,30.71
2022-08-17T12:22:50.252Z,31.06
2022-08-17T12:23:50.548Z,31.40
2022-08-17T12:24:50.851Z,31.54
2022-08-17T12:25:51.150Z,31.79
2022-08-17T12:26:51.444Z,31.91
2022-08-17T12:28:06.839Z,31.61
2022-08-17T12:28:53.108Z,31.24
2022-08-17T12:29:52.335Z,30.80
2022-08-17T12:30:52.618Z,30.67
2022-08-17T12:31:52.897Z,30.69
2022-08-17T12:32:53.195Z,30.81
2022-08-17T12:33:53.520Z,31.28
2022-08-17T12:34:53.862Z,31.40
2022-08-17T12:35:59.214Z,31.38
2022-08-17T12:36:55.478Z,31.27
2022-08-17T12:37:54.721Z,31.45
2022-08-17T12:38:55.035Z,31.62
2022-08-17T12:39:55.373Z,31.92
2022-08-17T12:40:55.670Z,32.22
2022-08-17T12:42:01.420Z,32.40
2022-08-17T12:42:57.220Z,32.44
2022-08-17T12:43:56.443Z,31.99
2022-08-17T12:44:56.777Z,32.17
2022-08-17T12:45:57.076Z,31.92
2022-08-17T12:46:57.379Z,32.06
2022-08-17T12:47:57.679Z,32.03
2022-08-17T12:48:59.825Z,32.14
2022-08-17T12:49:58.270Z,32.29
2022-08-17T12:50:58.559Z,32.30
2022-08-17T12:51:58.857Z,32.11
2022-08-17T12:53:02.327Z,31.60
2022-08-17T12:53:59.444Z,31.31
2022-08-17T12:54:59.771Z,31.15
2022-08-17T12:55:59.966Z,31.20
2022-08-17T12:57:00.265Z,31.17
2022-08-17T12:58:00.838Z,31.13
2022-08-17T12:59:00.797Z,30.93
2022-08-17T13:00:01.084Z,31.05
2022-08-17T13:01:01.363Z,31.11
2022-08-17T13:02:02.466Z,31.27
2022-08-17T13:03:02.025Z,31.48
2022-08-17T13:04:02.324Z,31.80
2022-08-17T13:05:02.627Z,31.82
2022-08-17T13:06:02.928Z,32.00
2022-08-17T13:07:03.209Z,31.91
2022-08-17T13:08:03.549Z,32.05
2022-08-17T13:09:03.852Z,32.37
2022-08-17T13:10:04.276Z,32.66
2022-08-17T13:11:04.510Z,32.74
2022-08-17T13:12:04.963Z,32.91
2022-08-17T13:13:05.091Z,32.85
2022-08-17T13:14:05.385Z,32.74
2022-08-17T13:15:05.704Z,32.57
2022-08-17T13:16:06.043Z,32.43
2022-08-17T13:17:12.658Z,32.43
2022-08-17T13:18:07.635Z,32.57
2022-08-17T13:19:06.893Z,32.77
2022-08-17T13:20:07.212Z,32.92
2022-08-17T13:21:07.552Z,32.67
2022-08-17T13:22:07.942Z,32.77
2022-08-17T13:23:12.328Z,32.69
2022-08-17T13:24:08.351Z,32.54
2022-08-17T13:25:08.671Z,32.43
2022-08-17T13:26:08.959Z,32.32
2022-08-17T13:27:09.268Z,32.18
2022-08-17T13:28:09.565Z,32.33
2022-08-17T13:29:09.902Z,32.35
2022-08-17T13:30:10.216Z,32.20
2022-08-17T13:31:10.527Z,32.05
2022-08-17T13:32:13.613Z,32.02
2022-08-17T13:33:11.189Z,31.79
2022-08-17T13:34:12.476Z,31.88
2022-08-17T13:35:28.322Z,32.07
2022-08-17T13:36:13.087Z,31.96
2022-08-17T13:37:13.487Z,31.96
2022-08-17T13:38:12.717Z,32.07
2022-08-17T13:39:13.007Z,31.99
2022-08-17T13:40:13.346Z,32.05
2022-08-17T13:41:13.589Z,32.17
2022-08-17T13:42:14.307Z,32.35
2022-08-17T13:43:14.194Z,32.40
2022-08-17T13:44:14.483Z,32.15
2022-08-17T13:45:35.071Z,31.65
2022-08-17T13:46:16.078Z,30.99
2022-08-17T13:47:15.330Z,30.64
2022-08-17T13:48:15.632Z,30.62
2022-08-17T13:49:15.934Z,30.57
2022-08-17T13:50:16.229Z,30.34
2022-08-17T13:51:16.522Z,30.54
2022-08-17T13:52:16.847Z,30.33
2022-08-17T13:53:17.072Z,30.59
2022-08-17T13:54:17.394Z,30.87
2022-08-17T13:55:17.683Z,31.20
2022-08-17T13:56:36.981Z,31.46
2022-08-17T13:57:19.313Z,31.53
2022-08-17T13:58:18.537Z,31.42
2022-08-17T13:59:18.836Z,31.24
2022-08-17T14:00:20.118Z,30.96
2022-08-17T14:01:19.525Z,30.81
2022-08-17T14:02:19.651Z,30.81
2022-08-17T14:03:19.944Z,30.93
2022-08-17T14:04:20.241Z,30.96
2022-08-17T14:05:20.536Z,30.81
2022-08-17T14:06:52.154Z,30.65
2022-08-17T14:07:22.181Z,30.21
2022-08-17T14:08:21.411Z,29.93
2022-08-17T14:09:21.689Z,29.94
2022-08-17T14:10:21.979Z,30.11
2022-08-17T14:11:22.322Z,30.40
2022-08-17T14:12:22.621Z,30.49
2022-08-17T14:13:22.925Z,30.40
2022-08-17T14:14:23.414Z,30.26
2022-08-17T14:15:23.528Z,30.26
2022-08-17T14:16:24.809Z,30.26
2022-08-17T14:17:24.150Z,30.27
2022-08-17T14:18:50.582Z,30.05
2022-08-17T14:19:25.760Z,29.97
2022-08-17T14:20:25.005Z,29.82
2022-08-17T14:21:25.294Z,29.86
2022-08-17T14:22:25.597Z,29.92
2022-08-17T14:23:25.925Z,29.99
2022-08-17T14:24:26.214Z,30.09
2022-08-17T14:25:26.517Z,29.89
2022-08-17T14:26:26.825Z,29.86
2022-08-17T14:27:27.139Z,29.71
2022-08-17T14:28:27.872Z,29.71
2022-08-17T14:29:27.730Z,29.72
2022-08-17T14:30:29.105Z,29.78
2022-08-17T14:31:28.289Z,29.72
2022-08-17T14:32:28.589Z,29.63
2022-08-17T14:33:28.921Z,29.66
2022-08-17T14:34:29.246Z,29.68
2022-08-17T14:35:29.536Z,29.56
2022-08-17T14:36:29.863Z,29.44
2022-08-17T14:37:30.152Z,29.23
2022-08-17T14:38:30.480Z,29.13
2022-08-17T14:39:30.835Z,28.84
2022-08-17T14:40:31.017Z,28.62
2022-08-17T14:41:31.311Z,28.35
2022-08-17T14:42:31.609Z,28.22
2022-08-17T14:43:31.908Z,28.21
2022-08-17T14:44:32.226Z,28.16
2022-08-17T14:45:33.511Z,28.31
2022-08-17T14:46:32.740Z,28.48
2022-08-17T14:47:33.016Z,28.75
2022-08-17T14:48:33.304Z,28.88
2022-08-17T14:49:33.629Z,29.00
2022-08-17T14:50:35.733Z,28.95
2022-08-17T14:51:34.211Z,28.73
2022-08-17T14:52:34.498Z,28.59
2022-08-17T14:53:34.792Z,28.48
2022-08-17T14:54:35.117Z,28.53
2022-08-17T14:55:35.404Z,28.51
2022-08-17T14:56:38.027Z,28.48
2022-08-17T14:57:36.011Z,28.50
2022-08-17T14:58:36.296Z,28.46
2022-08-17T14:59:36.577Z,28.35
2022-08-17T15:00:36.887Z,28.26